createdAt,value
2023-04-12T00:01:40.769Z,6.94
2023-04-12T00:04:34.498Z,6.95
2023-04-12T00:07:28.006Z,6.84
2023-04-12T00:10:16.974Z,6.88
2023-04-12T00:13:06.013Z,6.89
2023-04-12T00:15:55.803Z,6.75
2023-04-12T00:18:46.297Z,6.85
2023-04-12T00:21:36.437Z,6.94
2023-04-12T00:24:27.414Z,6.97
2023-04-12T00:27:16.180Z,6.98
2023-04-12T00:30:06.341Z,6.94
2023-04-12T00:32:59.879Z,6.82
2023-04-12T00:35:50.610Z,6.68
2023-04-12T00:38:40.642Z,6.75
2023-04-12T00:41:29.965Z,6.74
2023-04-12T00:44:19.246Z,6.77
2023-04-12T00:47:09.202Z,6.78
2023-04-12T00:49:58.271Z,6.71
2023-04-12T00:52:48.162Z,6.71
2023-04-12T00:55:38.233Z,6.85
2023-04-12T00:58:27.726Z,6.85
2023-04-12T01:01:17.574Z,6.79
2023-04-12T01:04:06.878Z,6.82
2023-04-12T01:07:16.249Z,6.87
2023-04-12T01:10:13.745Z,6.77
2023-04-12T01:13:13.543Z,6.44
2023-04-12T01:16:10.206Z,6.49
2023-04-12T01:19:06.234Z,6.50
2023-04-12T01:22:07.290Z,6.42
2023-04-12T01:25:11.882Z,6.46
2023-04-12T01:28:04.231Z,6.40
2023-04-12T01:30:54.760Z,6.65
2023-04-12T01:33:47.528Z,6.67
2023-04-12T01:36:40.593Z,6.60
2023-04-12T01:39:31.147Z,6.46
2023-04-12T01:42:20.531Z,6.38
2023-04-12T01:45:12.285Z,6.18
2023-04-12T01:48:03.194Z,6.21
2023-04-12T01:51:01.725Z,6.28
2023-04-12T01:53:59.367Z,6.13
2023-04-12T01:56:52.366Z,6.28
2023-04-12T01:59:42.362Z,6.40
2023-04-12T02:02:36.597Z,6.44
2023-04-12T02:05:26.327Z,6.41
2023-04-12T02:08:15.598Z,6.38
2023-04-12T02:11:09.865Z,6.30
2023-04-12T02:13:59.038Z,6.23
2023-04-12T02:16:51.117Z,6.19
2023-04-12T02:19:43.056Z,6.07
2023-04-12T02:22:33.658Z,6.07
2023-04-12T02:25:23.392Z,5.95
2023-04-12T02:28:14.896Z,6.05
2023-04-12T02:31:05.167Z,5.92
2023-04-12T02:33:57.246Z,5.94
2023-04-12T02:36:50.635Z,6.01
2023-04-12T02:39:41.373Z,6.12
2023-04-12T02:42:31.115Z,6.25
2023-04-12T02:45:20.279Z,6.45
2023-04-12T02:48:11.112Z,6.50
2023-04-12T02:51:00.176Z,6.52
2023-04-12T02:53:53.535Z,6.57
2023-04-12T02:56:45.642Z,6.52
2023-04-12T02:59:54.643Z,6.41
2023-04-12T03:03:09.879Z,6.45
2023-04-12T03:05:58.762Z,6.54
2023-04-12T03:08:47.990Z,6.59
2023-04-12T03:11:39.082Z,6.60
2023-04-12T03:14:28.512Z,6.64
2023-04-12T03:17:17.827Z,6.67
2023-04-12T03:20:09.778Z,6.67
2023-04-12T03:23:01.825Z,6.71
2023-04-12T03:25:51.947Z,6.59
2023-04-12T03:29:05.682Z,6.70
2023-04-12T03:31:58.013Z,6.74
2023-04-12T03:34:49.568Z,6.70
2023-04-12T03:37:43.732Z,6.79
2023-04-12T03:40:34.356Z,6.79
2023-04-12T03:43:23.411Z,6.82
2023-04-12T03:46:15.868Z,6.87
2023-04-12T03:49:05.939Z,6.90
2023-04-12T03:51:57.230Z,6.94
2023-04-12T03:54:47.458Z,6.99
2023-04-12T03:57:43.916Z,6.98
2023-04-12T04:00:33.398Z,7.07
2023-04-12T04:03:30.008Z,7.11
2023-04-12T04:06:31.151Z,7.15
2023-04-12T04:09:20.046Z,7.17
2023-04-12T04:12:10.476Z,7.24
2023-04-12T04:15:03.599Z,7.20
2023-04-12T04:17:56.609Z,7.20
2023-04-12T04:20:46.872Z,7.17
2023-04-12T04:23:39.420Z,7.19
2023-04-12T04:26:33.269Z,7.21
2023-04-12T04:29:35.160Z,7.19
2023-04-12T04:32:25.824Z,7.02
2023-04-12T04:35:19.524Z,7.26
2023-04-12T04:38:25.928Z,7.34
2023-04-12T04:41:24.817Z,7.26
2023-04-12T04:44:20.071Z,7.22
2023-04-12T04:47:17.033Z,7.23
2023-04-12T04:50:06.485Z,7.12
2023-04-12T04:52:56.210Z,7.16
2023-04-12T04:55:48.152Z,7.18
2023-04-12T04:58:39.047Z,7.08
2023-04-12T05:01:29.382Z,7.27
2023-04-12T05:04:22.922Z,7.28
2023-04-12T05:07:13.184Z,7.25
2023-04-12T05:10:05.977Z,7.29
2023-04-12T05:12:59.816Z,7.11
2023-04-12T05:15:49.424Z,7.16
2023-04-12T05:18:40.199Z,7.06
2023-04-12T05:21:29.149Z,6.99
2023-04-12T05:24:19.765Z,6.92
2023-04-12T05:27:08.943Z,6.96
2023-04-12T05:30:00.111Z,6.96
2023-04-12T05:32:48.873Z,6.89
2023-04-12T05:35:40.264Z,6.90
2023-04-12T05:38:28.942Z,6.84
2023-04-12T05:41:20.736Z,6.82
2023-04-12T05:44:11.569Z,6.79
2023-04-12T05:47:01.557Z,6.74
2023-04-12T05:49:50.391Z,6.64
2023-04-12T05:52:41.053Z,6.56
2023-04-12T05:55:32.433Z,6.64
2023-04-12T05:58:22.890Z,6.55
2023-04-12T06:01:17.010Z,6.59
2023-04-12T06:04:07.582Z,6.71
2023-04-12T06:06:57.200Z,6.67
2023-04-12T06:09:46.600Z,6.67
2023-04-12T06:12:35.476Z,6.71
2023-04-12T06:15:24.211Z,6.71
2023-04-12T06:18:16.956Z,6.71
2023-04-12T06:21:08.834Z,6.71
2023-04-12T06:23:58.173Z,6.70
2023-04-12T06:26:47.818Z,6.64
2023-04-12T06:29:38.401Z,6.70
2023-04-12T06:32:27.220Z,6.76
2023-04-12T06:35:18.257Z,6.86
2023-04-12T06:38:08.525Z,6.96
2023-04-12T06:40:57.728Z,6.95
2023-04-12T06:43:46.449Z,7.00
2023-04-12T06:46:35.081Z,7.03
2023-04-12T06:49:24.163Z,7.08
2023-04-12T06:52:12.883Z,7.09
2023-04-12T06:55:04.393Z,7.18
2023-04-12T06:57:53.168Z,7.20
2023-04-12T07:00:42.334Z,7.05
2023-04-12T07:03:33.274Z,7.31
2023-04-12T07:06:25.721Z,7.35
2023-04-12T07:09:16.184Z,7.37
2023-04-12T07:12:06.466Z,7.44
2023-04-12T07:14:56.749Z,7.52
2023-04-12T07:17:45.440Z,7.49
2023-04-12T07:20:34.076Z,7.41
2023-04-12T07:23:23.109Z,7.42
2023-04-12T07:26:12.089Z,7.42
2023-04-12T07:29:02.367Z,7.50
2023-04-12T07:31:51.106Z,7.52
2023-04-12T07:34:40.211Z,7.57
2023-04-12T07:37:29.251Z,7.60
2023-04-12T07:40:18.039Z,7.61
2023-04-12T07:43:07.532Z,7.78
2023-04-12T07:45:57.573Z,7.79
2023-04-12T07:48:46.292Z,7.84
2023-04-12T07:51:35.013Z,7.96
2023-04-12T07:54:24.009Z,7.95
2023-04-12T07:57:12.691Z,7.85
2023-04-12T08:00:02.327Z,7.97
2023-04-12T08:03:03.196Z,8.14
2023-04-12T08:05:55.275Z,8.21
2023-04-12T08:08:44.610Z,8.25
2023-04-12T08:11:35.337Z,8.24
2023-04-12T08:14:24.029Z,8.24
2023-04-12T08:17:13.622Z,8.25
2023-04-12T08:20:04.625Z,8.23
2023-04-12T08:22:54.637Z,8.31
2023-04-12T08:25:43.339Z,8.04
2023-04-12T08:28:33.361Z,8.52
2023-04-12T08:31:23.707Z,8.47
2023-04-12T08:34:13.233Z,8.42
2023-04-12T08:37:03.234Z,8.34
2023-04-12T08:39:52.792Z,7.92
2023-04-12T08:42:42.158Z,8.64
2023-04-12T08:45:33.206Z,8.66
2023-04-12T08:48:22.607Z,8.57
2023-04-12T08:51:14.533Z,8.59
2023-04-12T08:54:06.197Z,8.43
2023-04-12T08:56:58.281Z,8.64
2023-04-12T08:59:49.772Z,8.70
2023-04-12T09:02:39.991Z,8.75
2023-04-12T09:05:30.880Z,8.89
2023-04-12T09:08:20.440Z,8.91
2023-04-12T09:11:25.032Z,8.96
2023-04-12T09:14:24.034Z,8.97
2023-04-12T09:17:24.373Z,9.01
2023-04-12T09:20:26.546Z,9.08
2023-04-12T09:23:20.651Z,9.00
2023-04-12T09:26:11.331Z,9.22
2023-04-12T09:29:01.327Z,9.28
2023-04-12T09:31:57.534Z,9.36
2023-04-12T09:34:56.957Z,9.13
2023-04-12T09:37:45.699Z,9.16
2023-04-12T09:40:36.263Z,9.17
2023-04-12T09:43:38.257Z,9.11
2023-04-12T09:46:30.076Z,9.21
2023-04-12T09:49:18.950Z,9.35
2023-04-12T09:52:11.161Z,9.36
2023-04-12T09:55:00.271Z,9.54
2023-04-12T09:57:52.560Z,9.61
2023-04-12T10:00:43.425Z,9.62
2023-04-12T10:03:36.028Z,9.62
2023-04-12T10:06:27.892Z,9.58
2023-04-12T10:09:18.067Z,9.49
2023-04-12T10:12:07.258Z,9.42
2023-04-12T10:14:56.897Z,9.46
2023-04-12T10:17:47.640Z,9.49
2023-04-12T10:20:41.464Z,9.53
2023-04-12T10:23:32.686Z,9.60
2023-04-12T10:26:21.998Z,9.67
2023-04-12T10:29:27.262Z,9.86
2023-04-12T10:32:21.757Z,9.98
2023-04-12T10:35:11.485Z,10.16
2023-04-12T10:38:02.973Z,10.38
2023-04-12T10:41:14.509Z,10.80
2023-04-12T10:44:25.576Z,11.26
2023-04-12T10:47:14.471Z,11.47
2023-04-12T10:50:24.994Z,11.34
2023-04-12T10:53:26.136Z,11.31
2023-04-12T10:56:46.054Z,11.22
2023-04-12T10:59:57.697Z,11.26
2023-04-12T11:03:07.633Z,10.57
2023-04-12T11:06:16.125Z,11.15
2023-04-12T11:09:44.309Z,11.03
2023-04-12T11:12:44.230Z,11.08
2023-04-12T11:15:34.108Z,11.21
2023-04-12T11:22:30.974Z,11.57
2023-04-12T11:25:21.035Z,11.71
2023-04-12T11:28:25.127Z,11.89
2023-04-12T11:31:20.687Z,11.98
2023-04-12T11:34:10.179Z,12.03
2023-04-12T11:36:59.585Z,12.08
2023-04-12T11:39:50.999Z,12.12
2023-04-12T11:42:41.556Z,12.28
2023-04-12T11:45:32.418Z,12.38
2023-04-12T11:48:21.107Z,12.35
2023-04-12T11:51:21.064Z,12.51
2023-04-12T11:54:09.709Z,12.53
2023-04-12T11:57:01.549Z,12.60
2023-04-12T11:59:53.732Z,12.55
2023-04-12T12:02:52.084Z,12.64
2023-04-12T12:05:52.758Z,12.66
2023-04-12T12:08:41.728Z,12.82
2023-04-12T12:11:31.816Z,12.73
2023-04-12T12:14:20.839Z,12.55
2023-04-12T12:17:15.485Z,12.56
2023-04-12T12:20:04.750Z,12.58
2023-04-12T12:22:53.771Z,12.49
2023-04-12T12:25:47.076Z,12.46
2023-04-12T12:28:38.391Z,12.68
2023-04-12T12:31:29.147Z,12.71
2023-04-12T12:34:19.965Z,12.89
2023-04-12T12:37:10.548Z,12.85
2023-04-12T12:40:11.994Z,12.79
2023-04-12T12:43:01.142Z,12.65
2023-04-12T12:45:50.228Z,12.49
2023-04-12T12:48:40.782Z,12.28
2023-04-12T12:51:31.908Z,12.23
2023-04-12T12:54:36.580Z,12.26
2023-04-12T12:57:27.838Z,12.30
2023-04-12T13:00:18.026Z,12.35
2023-04-12T13:03:08.078Z,12.42
2023-04-12T13:05:57.011Z,12.40
2023-04-12T13:08:47.149Z,12.35
2023-04-12T13:11:35.850Z,12.42
2023-04-12T13:14:24.473Z,12.42
2023-04-12T13:17:13.560Z,12.35
2023-04-12T13:20:02.978Z,12.33
2023-04-12T13:22:52.999Z,12.30
2023-04-12T13:25:43.414Z,12.28
2023-04-12T13:28:32.178Z,12.20
2023-04-12T13:31:21.584Z,12.26
2023-04-12T13:34:10.321Z,12.02
2023-04-12T13:36:59.672Z,12.12
2023-04-12T13:39:49.538Z,12.08
2023-04-12T13:42:40.022Z,12.03
2023-04-12T13:45:29.103Z,12.01
2023-04-12T13:48:19.598Z,12.12
2023-04-12T13:51:08.517Z,12.22
2023-04-12T13:53:57.738Z,12.21
2023-04-12T13:56:46.403Z,12.28
2023-04-12T13:59:37.168Z,12.28
2023-04-12T14:02:27.072Z,12.26
2023-04-12T14:05:17.104Z,12.43
2023-04-12T14:08:05.814Z,12.61
2023-04-12T14:10:55.619Z,12.73
2023-04-12T14:13:44.221Z,13.08
2023-04-12T14:16:34.642Z,13.04
2023-04-12T14:19:23.318Z,13.19
2023-04-12T14:22:12.945Z,13.52
2023-04-12T14:25:01.802Z,13.72
2023-04-12T14:27:52.088Z,14.13
2023-04-12T14:30:42.113Z,14.19
2023-04-12T14:33:32.366Z,14.16
2023-04-12T14:36:21.284Z,14.03
2023-04-12T14:39:11.623Z,14.00
2023-04-12T14:42:02.868Z,13.86
2023-04-12T14:44:51.493Z,13.80
2023-04-12T14:47:42.040Z,13.72
2023-04-12T14:50:33.043Z,13.67
2023-04-12T14:53:23.057Z,13.64
2023-04-12T14:56:18.518Z,13.70
2023-04-12T14:59:08.334Z,13.75
2023-04-12T15:01:59.265Z,13.78
2023-04-12T15:04:49.751Z,13.73
2023-04-12T15:07:41.069Z,13.79
2023-04-12T15:10:30.749Z,13.82
2023-04-12T15:13:21.067Z,13.99
2023-04-12T15:16:12.332Z,14.15
2023-04-12T15:19:07.422Z,14.21
2023-04-12T15:22:00.632Z,14.08
2023-04-12T15:24:51.230Z,13.98
2023-04-12T15:27:39.900Z,14.11
2023-04-12T15:30:28.553Z,14.19
2023-04-12T15:33:17.218Z,14.20
2023-04-12T15:36:08.092Z,14.23
2023-04-12T15:38:56.706Z,14.29
2023-04-12T15:41:46.823Z,14.07
2023-04-12T15:44:35.491Z,14.54
2023-04-12T15:47:25.732Z,14.51
2023-04-12T15:50:14.505Z,14.34
2023-04-12T15:53:04.143Z,14.27
2023-04-12T15:55:54.642Z,14.16
2023-04-12T15:58:45.080Z,14.02
2023-04-12T16:01:36.080Z,13.86
2023-04-12T16:04:26.974Z,13.83
2023-04-12T16:07:17.457Z,13.86
2023-04-12T16:10:08.438Z,13.89
2023-04-12T16:12:57.506Z,13.75
2023-04-12T16:15:47.948Z,13.71
2023-04-12T16:18:37.321Z,13.69
2023-04-12T16:21:26.556Z,13.72
2023-04-12T16:24:15.234Z,13.82
2023-04-12T16:27:04.324Z,13.92
2023-04-12T16:29:53.277Z,13.92
2023-04-12T16:32:43.377Z,13.93
2023-04-12T16:35:32.528Z,13.90
2023-04-12T16:38:21.577Z,13.90
2023-04-12T16:41:10.222Z,13.85
2023-04-12T16:44:03.514Z,13.83
2023-04-12T16:46:52.214Z,13.83
2023-04-12T16:49:43.069Z,13.83
2023-04-12T16:52:32.165Z,13.83
2023-04-12T16:55:21.692Z,13.80
2023-04-12T16:58:11.485Z,13.85
2023-04-12T17:01:00.197Z,13.82
2023-04-12T17:03:49.585Z,13.86
2023-04-12T17:06:41.052Z,13.80
2023-04-12T17:09:30.577Z,13.70
2023-04-12T17:12:20.022Z,13.67
2023-04-12T17:15:09.432Z,13.64
2023-04-12T17:18:03.099Z,13.65
2023-04-12T17:20:52.159Z,13.63
2023-04-12T17:23:42.517Z,13.55
2023-04-12T17:26:31.162Z,13.48
2023-04-12T17:29:20.774Z,13.47
2023-04-12T17:32:09.439Z,13.44
2023-04-12T17:34:58.886Z,13.42
2023-04-12T17:37:47.882Z,13.38
2023-04-12T17:40:38.659Z,13.05
2023-04-12T17:43:27.334Z,13.37
2023-04-12T17:46:16.600Z,13.40
2023-04-12T17:49:06.689Z,13.38
2023-04-12T17:51:55.786Z,13.33
2023-04-12T17:54:44.609Z,13.24
2023-04-12T17:57:34.658Z,13.24
2023-04-12T18:00:25.542Z,13.22
2023-04-12T18:03:15.604Z,13.24
2023-04-12T18:06:05.246Z,13.18
2023-04-12T18:08:53.975Z,13.23
2023-04-12T18:11:43.809Z,13.26
2023-04-12T18:14:35.302Z,13.24
2023-04-12T18:17:26.428Z,13.22
2023-04-12T18:20:16.562Z,13.23
2023-04-12T18:23:05.450Z,13.23
2023-04-12T18:25:54.470Z,13.24
2023-04-12T18:28:43.088Z,13.29
2023-04-12T18:31:33.925Z,13.30
2023-04-12T18:34:23.145Z,13.32
2023-04-12T18:37:12.487Z,13.36
2023-04-12T18:40:01.542Z,13.34
2023-04-12T18:42:50.878Z,13.35
2023-04-12T18:45:41.112Z,13.34
2023-04-12T18:48:31.332Z,13.28
2023-04-12T18:51:20.967Z,13.26
2023-04-12T18:54:13.300Z,13.12
2023-04-12T18:57:03.460Z,13.18
2023-04-12T18:59:52.573Z,13.15
2023-04-12T19:02:41.954Z,13.09
2023-04-12T19:05:32.088Z,13.13
2023-04-12T19:08:22.198Z,13.16
2023-04-12T19:11:11.269Z,13.15
2023-04-12T19:14:00.937Z,13.12
2023-04-12T19:16:49.687Z,12.97
2023-04-12T19:19:39.040Z,12.94
2023-04-12T19:22:29.330Z,12.92
2023-04-12T19:25:19.711Z,12.86
2023-04-12T19:28:11.442Z,12.83
2023-04-12T19:31:00.141Z,12.74
2023-04-12T19:33:50.132Z,12.83
2023-04-12T19:36:39.051Z,12.82
2023-04-12T19:39:29.417Z,12.76
2023-04-12T19:42:18.591Z,12.72
2023-04-12T19:45:08.415Z,12.68
2023-04-12T19:47:57.599Z,12.62
2023-04-12T19:50:47.847Z,12.55
2023-04-12T19:53:37.289Z,12.52
2023-04-12T19:56:27.325Z,12.50
2023-04-12T19:59:16.010Z,12.43
2023-04-12T20:02:05.234Z,12.41
2023-04-12T20:04:54.173Z,12.27
2023-04-12T20:07:44.085Z,12.19
2023-04-12T20:10:33.146Z,12.17
2023-04-12T20:13:23.136Z,12.15
2023-04-12T20:16:12.149Z,12.07
2023-04-12T20:19:01.527Z,12.04
2023-04-12T20:21:50.588Z,12.03
2023-04-12T20:24:39.790Z,11.99
2023-04-12T20:27:30.349Z,11.96
2023-04-12T20:30:23.307Z,11.92
2023-04-12T20:33:12.294Z,11.89
2023-04-12T20:36:01.584Z,11.81
2023-04-12T20:38:51.767Z,11.75
2023-04-12T20:41:41.065Z,11.70
2023-04-12T20:44:30.336Z,11.72
2023-04-12T20:47:21.076Z,11.68
2023-04-12T20:50:10.984Z,11.65
2023-04-12T20:52:59.692Z,11.67
2023-04-12T20:55:49.128Z,11.66
2023-04-12T20:58:38.964Z,11.65
2023-04-12T21:01:27.768Z,11.64
2023-04-12T21:04:20.031Z,11.51
2023-04-12T21:07:09.112Z,11.52
2023-04-12T21:09:58.273Z,11.45
2023-04-12T21:12:47.181Z,11.43
2023-04-12T21:15:36.553Z,11.41
2023-04-12T21:18:25.351Z,11.31
2023-04-12T21:21:16.170Z,11.15
2023-04-12T21:24:05.143Z,11.05
2023-04-12T21:26:57.692Z,11.11
2023-04-12T21:29:47.520Z,11.12
2023-04-12T21:32:36.196Z,11.10
2023-04-12T21:35:26.099Z,10.91
2023-04-12T21:38:16.779Z,10.83
2023-04-12T21:41:09.807Z,10.81
2023-04-12T21:43:59.190Z,10.72
2023-04-12T21:46:48.126Z,10.63
2023-04-12T21:49:36.947Z,10.60
2023-04-12T21:52:26.730Z,10.57
2023-04-12T21:55:17.049Z,10.54
2023-04-12T21:58:06.029Z,10.39
2023-04-12T22:00:55.678Z,10.35
2023-04-12T22:03:45.118Z,10.36
2023-04-12T22:06:34.870Z,10.27
2023-04-12T22:09:24.616Z,10.33
2023-04-12T22:12:18.234Z,10.32
2023-04-12T22:15:09.138Z,10.24
2023-04-12T22:17:58.933Z,10.19
2023-04-12T22:20:49.318Z,10.21
2023-04-12T22:23:39.088Z,10.17
2023-04-12T22:26:27.722Z,10.12
2023-04-12T22:29:19.528Z,10.12
2023-04-12T22:32:09.642Z,10.09
2023-04-12T22:35:08.362Z,10.13
2023-04-12T22:37:58.225Z,10.11
2023-04-12T22:40:47.754Z,10.08
2023-04-12T22:43:42.059Z,9.99
2023-04-12T22:46:34.155Z,9.93
2023-04-12T22:49:28.057Z,9.86
2023-04-12T22:52:17.683Z,9.89
2023-04-12T22:55:07.853Z,9.72
2023-04-12T22:57:57.100Z,9.75
2023-04-12T23:00:45.684Z,9.73
2023-04-12T23:03:38.966Z,9.70
2023-04-12T23:06:28.025Z,9.62
2023-04-12T23:09:17.281Z,9.54
2023-04-12T23:12:06.346Z,9.62
2023-04-12T23:14:55.883Z,9.46
2023-04-12T23:17:44.497Z,9.40
2023-04-12T23:20:36.869Z,9.38
2023-04-12T23:23:27.491Z,9.35
2023-04-12T23:26:16.878Z,9.24
2023-04-12T23:29:06.094Z,9.18
2023-04-12T23:31:54.806Z,9.12
2023-04-12T23:34:44.497Z,9.16
2023-04-12T23:37:35.994Z,9.08
2023-04-12T23:40:25.777Z,9.13
2023-04-12T23:43:14.374Z,9.15
2023-04-12T23:46:04.460Z,9.14
2023-04-12T23:48:53.057Z,9.15
2023-04-12T23:51:42.555Z,9.17
2023-04-12T23:54:32.478Z,9.22
2023-04-12T23:57:21.917Z,9.24
